sensor_id;sensor_type;location;lat;lon;timestamp;P1;durP1;ratioP1;P2;durP2;ratioP2
63599;SDS011;49747;51.334;6.830;2023-02-11T00:00:15;30.40;;;15.00;;
63599;SDS011;49747;51.334;6.830;2023-02-11T00:02:42;31.60;;;15.52;;
63599;SDS011;49747;51.334;6.830;2023-02-11T00:05:13;27.85;;;14.55;;
63599;SDS011;49747;51.334;6.830;2023-02-11T00:07:39;26.50;;;14.68;;
63599;SDS011;49747;51.334;6.830;2023-02-11T00:10:06;26.95;;;15.10;;
63599;SDS011;49747;51.334;6.830;2023-02-11T00:12:34;27.58;;;15.18;;
63599;SDS011;49747;51.334;6.830;2023-02-11T00:15:01;28.52;;;14.88;;
63599;SDS011;49747;51.334;6.830;2023-02-11T00:17:28;24.38;;;14.73;;
63599;SDS011;49747;51.334;6.830;2023-02-11T00:19:55;25.52;;;14.43;;
63599;SDS011;49747;51.334;6.830;2023-02-11T00:22:21;25.05;;;14.98;;
63599;SDS011;49747;51.334;6.830;2023-02-11T00:24:48;25.05;;;14.15;;
63599;SDS011;49747;51.334;6.830;2023-02-11T00:27:14;22.52;;;14.02;;
63599;SDS011;49747;51.334;6.830;2023-02-11T00:29:42;23.30;;;12.98;;
63599;SDS011;49747;51.334;6.830;2023-02-11T00:32:09;23.75;;;12.77;;
63599;SDS011;49747;51.334;6.830;2023-02-11T00:34:36;26.75;;;13.52;;
63599;SDS011;49747;51.334;6.830;2023-02-11T00:37:04;22.55;;;12.70;;
63599;SDS011;49747;51.334;6.830;2023-02-11T00:39:30;23.48;;;12.80;;
63599;SDS011;49747;51.334;6.830;2023-02-11T00:41:57;23.63;;;12.68;;
63599;SDS011;49747;51.334;6.830;2023-02-11T00:44:25;23.88;;;12.95;;
63599;SDS011;49747;51.334;6.830;2023-02-11T00:46:52;22.45;;;12.60;;
63599;SDS011;49747;51.334;6.830;2023-02-11T00:49:18;20.45;;;12.43;;
63599;SDS011;49747;51.334;6.830;2023-02-11T00:51:47;22.85;;;12.82;;
63599;SDS011;49747;51.334;6.830;2023-02-11T00:54:13;21.60;;;12.77;;
63599;SDS011;49747;51.334;6.830;2023-02-11T00:56:40;23.23;;;11.73;;
63599;SDS011;49747;51.334;6.830;2023-02-11T00:59:06;22.35;;;12.23;;
63599;SDS011;49747;51.334;6.830;2023-02-11T01:01:33;21.48;;;12.80;;
63599;SDS011;49747;51.334;6.830;2023-02-11T01:04:00;21.58;;;11.60;;
63599;SDS011;49747;51.334;6.830;2023-02-11T01:06:27;21.23;;;12.50;;
63599;SDS011;49747;51.334;6.830;2023-02-11T01:08:54;21.75;;;11.63;;
63599;SDS011;49747;51.334;6.830;2023-02-11T01:11:20;21.08;;;12.18;;
63599;SDS011;49747;51.334;6.830;2023-02-11T01:13:47;18.90;;;11.77;;
63599;SDS011;49747;51.334;6.830;2023-02-11T01:16:15;23.83;;;12.60;;
63599;SDS011;49747;51.334;6.830;2023-02-11T01:18:44;18.58;;;11.60;;
63599;SDS011;49747;51.334;6.830;2023-02-11T01:21:11;22.70;;;12.30;;
63599;SDS011;49747;51.334;6.830;2023-02-11T01:23:38;17.80;;;11.05;;
63599;SDS011;49747;51.334;6.830;2023-02-11T01:26:04;21.73;;;12.48;;
63599;SDS011;49747;51.334;6.830;2023-02-11T01:28:32;25.80;;;11.68;;
63599;SDS011;49747;51.334;6.830;2023-02-11T01:30:59;19.90;;;12.13;;
63599;SDS011;49747;51.334;6.830;2023-02-11T01:33:27;20.02;;;12.88;;
63599;SDS011;49747;51.334;6.830;2023-02-11T01:35:54;20.02;;;11.80;;
63599;SDS011;49747;51.334;6.830;2023-02-11T01:38:22;23.20;;;12.93;;
63599;SDS011;49747;51.334;6.830;2023-02-11T01:40:52;21.35;;;12.50;;
63599;SDS011;49747;51.334;6.830;2023-02-11T01:43:23;21.58;;;12.80;;
63599;SDS011;49747;51.334;6.830;2023-02-11T01:45:56;19.58;;;12.25;;
63599;SDS011;49747;51.334;6.830;2023-02-11T01:48:29;22.38;;;11.82;;
63599;SDS011;49747;51.334;6.830;2023-02-11T01:51:34;20.02;;;11.50;;
63599;SDS011;49747;51.334;6.830;2023-02-11T01:53:55;25.25;;;12.55;;
63599;SDS011;49747;51.334;6.830;2023-02-11T01:56:45;21.33;;;11.73;;
63599;SDS011;49747;51.334;6.830;2023-02-11T01:59:38;23.83;;;12.20;;
63599;SDS011;49747;51.334;6.830;2023-02-11T02:02:10;22.52;;;13.13;;
63599;SDS011;49747;51.334;6.830;2023-02-11T02:04:41;24.05;;;12.80;;
63599;SDS011;49747;51.334;6.830;2023-02-11T02:07:25;23.17;;;13.23;;
63599;SDS011;49747;51.334;6.830;2023-02-11T02:10:03;20.23;;;12.50;;
63599;SDS011;49747;51.334;6.830;2023-02-11T02:12:34;21.92;;;12.43;;
63599;SDS011;49747;51.334;6.830;2023-02-11T02:15:17;21.17;;;12.18;;
63599;SDS011;49747;51.334;6.830;2023-02-11T02:17:54;22.00;;;12.88;;
63599;SDS011;49747;51.334;6.830;2023-02-11T02:20:49;21.73;;;12.10;;
63599;SDS011;49747;51.334;6.830;2023-02-11T02:23:30;21.60;;;12.55;;
63599;SDS011;49747;51.334;6.830;2023-02-11T02:37:23;20.45;;;11.25;;
63599;SDS011;49747;51.334;6.830;2023-02-11T02:39:59;21.73;;;12.65;;
63599;SDS011;49747;51.334;6.830;2023-02-11T02:42:30;22.80;;;12.65;;
63599;SDS011;49747;51.334;6.830;2023-02-11T02:44:57;24.10;;;12.07;;
63599;SDS011;49747;51.334;6.830;2023-02-11T02:47:24;27.63;;;12.85;;
63599;SDS011;49747;51.334;6.830;2023-02-11T02:49:51;19.65;;;11.30;;
63599;SDS011;49747;51.334;6.830;2023-02-11T02:55:19;22.42;;;11.80;;
63599;SDS011;49747;51.334;6.830;2023-02-11T03:00:27;20.58;;;11.98;;
63599;SDS011;49747;51.334;6.830;2023-02-11T03:03:16;18.48;;;11.25;;
63599;SDS011;49747;51.334;6.830;2023-02-11T03:06:00;20.08;;;10.90;;
63599;SDS011;49747;51.334;6.830;2023-02-11T03:08:36;19.70;;;10.57;;
63599;SDS011;49747;51.334;6.830;2023-02-11T03:13:38;16.33;;;10.02;;
63599;SDS011;49747;51.334;6.830;2023-02-11T03:16:14;19.75;;;10.27;;
63599;SDS011;49747;51.334;6.830;2023-02-11T03:18:47;16.88;;;10.15;;
63599;SDS011;49747;51.334;6.830;2023-02-11T03:21:16;20.67;;;10.55;;
63599;SDS011;49747;51.334;6.830;2023-02-11T03:23:49;18.73;;;10.68;;
63599;SDS011;49747;51.334;6.830;2023-02-11T03:37:29;20.27;;;10.77;;
63599;SDS011;49747;51.334;6.830;2023-02-11T03:40:04;19.88;;;10.00;;
63599;SDS011;49747;51.334;6.830;2023-02-11T03:42:39;19.95;;;10.68;;
63599;SDS011;49747;51.334;6.830;2023-02-11T03:47:40;21.90;;;10.35;;
63599;SDS011;49747;51.334;6.830;2023-02-11T03:50:11;17.08;;;9.45;;
63599;SDS011;49747;51.334;6.830;2023-02-11T03:52:41;17.67;;;9.25;;
63599;SDS011;49747;51.334;6.830;2023-02-11T03:55:10;20.42;;;10.02;;
63599;SDS011;49747;51.334;6.830;2023-02-11T03:57:40;21.45;;;10.52;;
63599;SDS011;49747;51.334;6.830;2023-02-11T04:00:07;18.58;;;10.05;;
63599;SDS011;49747;51.334;6.830;2023-02-11T04:02:38;20.60;;;10.98;;
63599;SDS011;49747;51.334;6.830;2023-02-11T04:05:05;22.38;;;11.65;;
63599;SDS011;49747;51.334;6.830;2023-02-11T04:07:33;19.17;;;10.05;;
63599;SDS011;49747;51.334;6.830;2023-02-11T04:10:00;18.92;;;9.60;;
63599;SDS011;49747;51.334;6.830;2023-02-11T04:12:26;18.98;;;9.35;;
63599;SDS011;49747;51.334;6.830;2023-02-11T04:14:53;18.73;;;9.70;;
63599;SDS011;49747;51.334;6.830;2023-02-11T04:17:19;20.20;;;10.48;;
63599;SDS011;49747;51.334;6.830;2023-02-11T04:19:46;18.30;;;9.23;;
63599;SDS011;49747;51.334;6.830;2023-02-11T04:22:13;20.55;;;9.73;;
63599;SDS011;49747;51.334;6.830;2023-02-11T04:24:39;20.98;;;10.13;;
63599;SDS011;49747;51.334;6.830;2023-02-11T04:27:06;19.63;;;9.68;;
63599;SDS011;49747;51.334;6.830;2023-02-11T04:29:33;16.10;;;9.75;;
63599;SDS011;49747;51.334;6.830;2023-02-11T04:32:00;21.88;;;9.90;;
63599;SDS011;49747;51.334;6.830;2023-02-11T04:34:26;19.45;;;10.57;;
63599;SDS011;49747;51.334;6.830;2023-02-11T04:36:53;19.60;;;9.57;;
63599;SDS011;49747;51.334;6.830;2023-02-11T04:39:20;19.55;;;10.05;;
63599;SDS011;49747;51.334;6.830;2023-02-11T04:41:46;20.45;;;9.55;;
63599;SDS011;49747;51.334;6.830;2023-02-11T04:44:13;17.70;;;9.57;;
63599;SDS011;49747;51.334;6.830;2023-02-11T04:46:40;23.45;;;9.75;;
63599;SDS011;49747;51.334;6.830;2023-02-11T04:49:06;21.23;;;9.27;;
63599;SDS011;49747;51.334;6.830;2023-02-11T04:51:33;19.13;;;9.40;;
63599;SDS011;49747;51.334;6.830;2023-02-11T04:53:59;23.27;;;9.57;;
63599;SDS011;49747;51.334;6.830;2023-02-11T04:56:26;20.23;;;10.38;;
63599;SDS011;49747;51.334;6.830;2023-02-11T04:58:52;20.55;;;9.40;;
63599;SDS011;49747;51.334;6.830;2023-02-11T05:01:19;24.27;;;10.13;;
63599;SDS011;49747;51.334;6.830;2023-02-11T05:03:46;20.63;;;9.60;;
63599;SDS011;49747;51.334;6.830;2023-02-11T05:06:13;18.88;;;9.85;;
63599;SDS011;49747;51.334;6.830;2023-02-11T05:08:40;24.80;;;10.32;;
63599;SDS011;49747;51.334;6.830;2023-02-11T05:11:06;20.65;;;10.73;;
63599;SDS011;49747;51.334;6.830;2023-02-11T05:13:39;21.20;;;10.32;;
63599;SDS011;49747;51.334;6.830;2023-02-11T05:16:06;18.65;;;10.88;;
63599;SDS011;49747;51.334;6.830;2023-02-11T05:18:32;20.80;;;10.98;;
63599;SDS011;49747;51.334;6.830;2023-02-11T05:20:59;20.38;;;10.10;;
63599;SDS011;49747;51.334;6.830;2023-02-11T05:23:31;22.45;;;10.75;;
63599;SDS011;49747;51.334;6.830;2023-02-11T05:25:59;21.75;;;11.50;;
63599;SDS011;49747;51.334;6.830;2023-02-11T05:28:26;21.67;;;11.65;;
63599;SDS011;49747;51.334;6.830;2023-02-11T05:30:53;23.15;;;11.07;;
63599;SDS011;49747;51.334;6.830;2023-02-11T05:33:20;22.55;;;12.30;;
63599;SDS011;49747;51.334;6.830;2023-02-11T05:35:47;21.58;;;12.38;;
63599;SDS011;49747;51.334;6.830;2023-02-11T05:38:14;25.27;;;11.35;;
63599;SDS011;49747;51.334;6.830;2023-02-11T05:40:41;24.40;;;10.18;;
63599;SDS011;49747;51.334;6.830;2023-02-11T05:43:08;23.63;;;11.55;;
63599;SDS011;49747;51.334;6.830;2023-02-11T05:45:34;18.80;;;10.88;;
63599;SDS011;49747;51.334;6.830;2023-02-11T05:48:02;22.00;;;10.93;;
63599;SDS011;49747;51.334;6.830;2023-02-11T05:50:29;22.67;;;11.68;;
63599;SDS011;49747;51.334;6.830;2023-02-11T05:52:55;26.08;;;11.57;;
63599;SDS011;49747;51.334;6.830;2023-02-11T05:55:22;22.33;;;12.27;;
63599;SDS011;49747;51.334;6.830;2023-02-11T05:57:49;27.20;;;12.48;;
63599;SDS011;49747;51.334;6.830;2023-02-11T06:00:16;19.38;;;10.52;;
63599;SDS011;49747;51.334;6.830;2023-02-11T06:02:42;24.42;;;13.38;;
63599;SDS011;49747;51.334;6.830;2023-02-11T06:05:09;23.38;;;11.40;;
63599;SDS011;49747;51.334;6.830;2023-02-11T06:07:36;23.48;;;11.68;;
63599;SDS011;49747;51.334;6.830;2023-02-11T06:10:03;28.10;;;12.63;;
63599;SDS011;49747;51.334;6.830;2023-02-11T06:12:30;25.13;;;11.40;;
63599;SDS011;49747;51.334;6.830;2023-02-11T06:14:57;24.95;;;13.32;;
63599;SDS011;49747;51.334;6.830;2023-02-11T06:17:23;27.63;;;12.73;;
63599;SDS011;49747;51.334;6.830;2023-02-11T06:19:50;21.88;;;12.93;;
63599;SDS011;49747;51.334;6.830;2023-02-11T06:22:17;25.08;;;12.70;;
63599;SDS011;49747;51.334;6.830;2023-02-11T06:24:43;24.75;;;12.73;;
63599;SDS011;49747;51.334;6.830;2023-02-11T06:27:26;26.73;;;12.98;;
63599;SDS011;49747;51.334;6.830;2023-02-11T06:29:53;24.88;;;11.23;;
63599;SDS011;49747;51.334;6.830;2023-02-11T06:32:19;25.95;;;11.32;;
63599;SDS011;49747;51.334;6.830;2023-02-11T06:35:06;21.13;;;12.15;;
63599;SDS011;49747;51.334;6.830;2023-02-11T06:37:36;22.65;;;11.68;;
63599;SDS011;49747;51.334;6.830;2023-02-11T06:40:03;24.45;;;11.70;;
63599;SDS011;49747;51.334;6.830;2023-02-11T06:42:30;26.65;;;11.35;;
63599;SDS011;49747;51.334;6.830;2023-02-11T06:44:57;22.95;;;11.82;;
63599;SDS011;49747;51.334;6.830;2023-02-11T06:47:23;26.00;;;11.95;;
63599;SDS011;49747;51.334;6.830;2023-02-11T06:49:50;24.98;;;12.27;;
63599;SDS011;49747;51.334;6.830;2023-02-11T06:52:17;24.10;;;13.52;;
63599;SDS011;49747;51.334;6.830;2023-02-11T06:54:43;24.33;;;12.20;;
63599;SDS011;49747;51.334;6.830;2023-02-11T06:57:10;25.73;;;11.80;;
63599;SDS011;49747;51.334;6.830;2023-02-11T06:59:37;22.50;;;12.65;;
63599;SDS011;49747;51.334;6.830;2023-02-11T07:02:03;28.85;;;12.38;;
63599;SDS011;49747;51.334;6.830;2023-02-11T07:04:30;23.92;;;12.65;;
63599;SDS011;49747;51.334;6.830;2023-02-11T07:06:56;26.25;;;11.65;;
63599;SDS011;49747;51.334;6.830;2023-02-11T07:09:23;24.98;;;12.48;;
63599;SDS011;49747;51.334;6.830;2023-02-11T07:11:50;24.15;;;12.23;;
63599;SDS011;49747;51.334;6.830;2023-02-11T07:14:17;24.83;;;11.82;;
63599;SDS011;49747;51.334;6.830;2023-02-11T07:16:43;22.02;;;11.13;;
63599;SDS011;49747;51.334;6.830;2023-02-11T07:19:10;23.30;;;11.45;;
63599;SDS011;49747;51.334;6.830;2023-02-11T07:21:36;28.45;;;12.32;;
63599;SDS011;49747;51.334;6.830;2023-02-11T07:24:06;27.52;;;11.52;;
63599;SDS011;49747;51.334;6.830;2023-02-11T07:26:36;24.77;;;10.98;;
63599;SDS011;49747;51.334;6.830;2023-02-11T07:29:03;28.83;;;12.18;;
63599;SDS011;49747;51.334;6.830;2023-02-11T07:31:30;24.42;;;12.02;;
63599;SDS011;49747;51.334;6.830;2023-02-11T07:33:59;20.98;;;11.00;;
63599;SDS011;49747;51.334;6.830;2023-02-11T07:36:28;24.48;;;11.52;;
63599;SDS011;49747;51.334;6.830;2023-02-11T07:38:57;24.63;;;11.32;;
63599;SDS011;49747;51.334;6.830;2023-02-11T07:41:25;32.58;;;11.75;;
63599;SDS011;49747;51.334;6.830;2023-02-11T07:43:52;28.92;;;11.45;;
63599;SDS011;49747;51.334;6.830;2023-02-11T07:46:23;27.05;;;11.15;;
63599;SDS011;49747;51.334;6.830;2023-02-11T07:48:52;25.25;;;11.35;;
63599;SDS011;49747;51.334;6.830;2023-02-11T07:51:21;26.63;;;11.35;;
63599;SDS011;49747;51.334;6.830;2023-02-11T07:53:50;25.83;;;12.00;;
63599;SDS011;49747;51.334;6.830;2023-02-11T07:56:17;24.42;;;11.57;;
63599;SDS011;49747;51.334;6.830;2023-02-11T07:58:45;25.13;;;11.95;;
63599;SDS011;49747;51.334;6.830;2023-02-11T08:01:14;24.58;;;11.10;;
63599;SDS011;49747;51.334;6.830;2023-02-11T08:03:44;26.77;;;11.05;;
63599;SDS011;49747;51.334;6.830;2023-02-11T08:06:12;23.30;;;11.07;;
63599;SDS011;49747;51.334;6.830;2023-02-11T08:08:40;26.92;;;11.95;;
63599;SDS011;49747;51.334;6.830;2023-02-11T08:11:08;29.45;;;12.68;;
63599;SDS011;49747;51.334;6.830;2023-02-11T08:13:40;30.45;;;12.50;;
63599;SDS011;49747;51.334;6.830;2023-02-11T08:16:08;32.38;;;14.57;;
63599;SDS011;49747;51.334;6.830;2023-02-11T08:18:42;32.33;;;14.10;;
63599;SDS011;49747;51.334;6.830;2023-02-11T08:21:09;26.17;;;13.82;;
63599;SDS011;49747;51.334;6.830;2023-02-11T08:23:36;31.77;;;14.57;;
63599;SDS011;49747;51.334;6.830;2023-02-11T08:26:11;33.17;;;14.07;;
63599;SDS011;49747;51.334;6.830;2023-02-11T08:28:46;31.65;;;13.90;;
63599;SDS011;49747;51.334;6.830;2023-02-11T08:31:15;37.47;;;13.98;;
63599;SDS011;49747;51.334;6.830;2023-02-11T08:33:44;38.70;;;14.68;;
63599;SDS011;49747;51.334;6.830;2023-02-11T08:36:15;39.03;;;14.38;;
63599;SDS011;49747;51.334;6.830;2023-02-11T08:38:43;37.55;;;14.50;;
63599;SDS011;49747;51.334;6.830;2023-02-11T08:41:10;35.95;;;14.70;;
63599;SDS011;49747;51.334;6.830;2023-02-11T08:43:40;35.95;;;13.95;;
63599;SDS011;49747;51.334;6.830;2023-02-11T08:46:08;34.47;;;14.35;;
63599;SDS011;49747;51.334;6.830;2023-02-11T08:48:37;37.17;;;15.10;;
63599;SDS011;49747;51.334;6.830;2023-02-11T08:51:04;35.15;;;14.73;;
63599;SDS011;49747;51.334;6.830;2023-02-11T08:53:33;30.25;;;14.60;;
63599;SDS011;49747;51.334;6.830;2023-02-11T08:56:01;45.75;;;16.45;;
63599;SDS011;49747;51.334;6.830;2023-02-11T08:58:27;38.35;;;14.98;;
63599;SDS011;49747;51.334;6.830;2023-02-11T09:00:54;38.85;;;15.13;;
63599;SDS011;49747;51.334;6.830;2023-02-11T09:03:21;36.50;;;14.30;;
63599;SDS011;49747;51.334;6.830;2023-02-11T09:05:48;40.88;;;14.70;;
63599;SDS011;49747;51.334;6.830;2023-02-11T09:08:16;40.05;;;15.75;;
63599;SDS011;49747;51.334;6.830;2023-02-11T09:10:44;36.88;;;15.50;;
63599;SDS011;49747;51.334;6.830;2023-02-11T09:13:10;39.25;;;15.20;;
63599;SDS011;49747;51.334;6.830;2023-02-11T09:15:38;38.55;;;16.08;;
63599;SDS011;49747;51.334;6.830;2023-02-11T09:18:04;47.88;;;16.13;;
63599;SDS011;49747;51.334;6.830;2023-02-11T09:20:31;43.10;;;17.05;;
63599;SDS011;49747;51.334;6.830;2023-02-11T09:22:58;40.90;;;16.17;;
63599;SDS011;49747;51.334;6.830;2023-02-11T09:25:24;39.22;;;15.48;;
63599;SDS011;49747;51.334;6.830;2023-02-11T09:27:51;43.17;;;17.25;;
63599;SDS011;49747;51.334;6.830;2023-02-11T09:30:18;38.50;;;17.45;;
63599;SDS011;49747;51.334;6.830;2023-02-11T09:32:45;38.67;;;16.60;;
63599;SDS011;49747;51.334;6.830;2023-02-11T09:35:12;35.35;;;16.13;;
63599;SDS011;49747;51.334;6.830;2023-02-11T09:37:38;34.22;;;16.42;;
63599;SDS011;49747;51.334;6.830;2023-02-11T09:40:05;24.45;;;10.07;;
63599;SDS011;49747;51.334;6.830;2023-02-11T09:42:38;24.25;;;11.70;;
63599;SDS011;49747;51.334;6.830;2023-02-11T09:45:14;38.15;;;16.15;;
63599;SDS011;49747;51.334;6.830;2023-02-11T09:47:51;36.38;;;17.33;;
63599;SDS011;49747;51.334;6.830;2023-02-11T09:53:05;37.85;;;16.00;;
63599;SDS011;49747;51.334;6.830;2023-02-11T09:55:40;44.30;;;16.17;;
63599;SDS011;49747;51.334;6.830;2023-02-11T09:58:13;41.90;;;17.50;;
63599;SDS011;49747;51.334;6.830;2023-02-11T10:00:44;38.92;;;16.73;;
63599;SDS011;49747;51.334;6.830;2023-02-11T10:03:36;38.22;;;17.42;;
63599;SDS011;49747;51.334;6.830;2023-02-11T10:23:00;34.35;;;15.60;;
63599;SDS011;49747;51.334;6.830;2023-02-11T10:25:34;39.15;;;16.80;;
63599;SDS011;49747;51.334;6.830;2023-02-11T10:28:12;35.13;;;16.75;;
63599;SDS011;49747;51.334;6.830;2023-02-11T10:30:53;40.83;;;17.08;;
63599;SDS011;49747;51.334;6.830;2023-02-11T10:36:16;36.47;;;16.52;;
63599;SDS011;49747;51.334;6.830;2023-02-11T10:38:44;38.50;;;17.13;;
63599;SDS011;49747;51.334;6.830;2023-02-11T10:41:21;36.33;;;16.45;;
63599;SDS011;49747;51.334;6.830;2023-02-11T10:43:52;41.17;;;17.10;;
63599;SDS011;49747;51.334;6.830;2023-02-11T10:46:21;41.08;;;17.67;;
63599;SDS011;49747;51.334;6.830;2023-02-11T10:48:52;45.83;;;17.63;;
63599;SDS011;49747;51.334;6.830;2023-02-11T10:51:26;39.25;;;18.00;;
63599;SDS011;49747;51.334;6.830;2023-02-11T10:56:30;35.65;;;17.42;;
63599;SDS011;49747;51.334;6.830;2023-02-11T10:59:46;39.88;;;18.30;;
63599;SDS011;49747;51.334;6.830;2023-02-11T11:01:51;45.60;;;19.27;;
63599;SDS011;49747;51.334;6.830;2023-02-11T11:07:11;42.10;;;17.80;;
63599;SDS011;49747;51.334;6.830;2023-02-11T11:09:58;38.28;;;18.00;;
63599;SDS011;49747;51.334;6.830;2023-02-11T11:15:02;38.97;;;17.05;;
63599;SDS011;49747;51.334;6.830;2023-02-11T11:18:08;44.67;;;18.92;;
63599;SDS011;49747;51.334;6.830;2023-02-11T11:20:57;40.65;;;16.67;;
63599;SDS011;49747;51.334;6.830;2023-02-11T11:23:26;39.47;;;17.40;;
63599;SDS011;49747;51.334;6.830;2023-02-11T11:31:17;37.15;;;16.98;;
63599;SDS011;49747;51.334;6.830;2023-02-11T11:33:48;45.15;;;17.33;;
63599;SDS011;49747;51.334;6.830;2023-02-11T11:36:21;37.75;;;17.25;;
63599;SDS011;49747;51.334;6.830;2023-02-11T11:38:55;46.25;;;19.02;;
63599;SDS011;49747;51.334;6.830;2023-02-11T11:41:26;41.53;;;17.67;;
63599;SDS011;49747;51.334;6.830;2023-02-11T11:47:03;40.78;;;19.40;;
63599;SDS011;49747;51.334;6.830;2023-02-11T11:55:43;37.88;;;18.08;;
63599;SDS011;49747;51.334;6.830;2023-02-11T11:58:16;39.92;;;18.52;;
63599;SDS011;49747;51.334;6.830;2023-02-11T12:03:45;42.15;;;17.30;;
63599;SDS011;49747;51.334;6.830;2023-02-11T12:11:40;38.33;;;18.70;;
63599;SDS011;49747;51.334;6.830;2023-02-11T12:25:21;40.08;;;17.98;;
63599;SDS011;49747;51.334;6.830;2023-02-11T12:27:56;41.70;;;17.60;;
63599;SDS011;49747;51.334;6.830;2023-02-11T12:33:15;44.45;;;21.00;;
63599;SDS011;49747;51.334;6.830;2023-02-11T12:35:58;39.65;;;17.95;;
63599;SDS011;49747;51.334;6.830;2023-02-11T12:38:51;42.80;;;18.48;;
63599;SDS011;49747;51.334;6.830;2023-02-11T12:44:55;42.38;;;18.67;;
63599;SDS011;49747;51.334;6.830;2023-02-11T12:52:39;47.95;;;19.08;;
63599;SDS011;49747;51.334;6.830;2023-02-11T12:55:24;38.55;;;18.27;;
63599;SDS011;49747;51.334;6.830;2023-02-11T12:57:53;38.88;;;18.75;;
63599;SDS011;49747;51.334;6.830;2023-02-11T13:00:24;45.75;;;19.35;;
63599;SDS011;49747;51.334;6.830;2023-02-11T13:03:03;41.53;;;18.65;;
63599;SDS011;49747;51.334;6.830;2023-02-11T13:08:43;42.00;;;18.40;;
63599;SDS011;49747;51.334;6.830;2023-02-11T13:11:48;49.75;;;20.08;;
63599;SDS011;49747;51.334;6.830;2023-02-11T13:14:16;42.97;;;19.58;;
63599;SDS011;49747;51.334;6.830;2023-02-11T13:16:51;42.72;;;19.40;;
63599;SDS011;49747;51.334;6.830;2023-02-11T13:19:33;44.65;;;21.35;;
63599;SDS011;49747;51.334;6.830;2023-02-11T13:24:58;49.00;;;19.25;;
63599;SDS011;49747;51.334;6.830;2023-02-11T13:27:50;42.58;;;20.35;;
63599;SDS011;49747;51.334;6.830;2023-02-11T13:30:29;46.03;;;19.17;;
63599;SDS011;49747;51.334;6.830;2023-02-11T13:33:01;43.55;;;20.10;;
63599;SDS011;49747;51.334;6.830;2023-02-11T13:35:44;43.92;;;19.73;;
63599;SDS011;49747;51.334;6.830;2023-02-11T13:46:49;48.83;;;20.40;;
63599;SDS011;49747;51.334;6.830;2023-02-11T13:49:20;43.42;;;20.20;;
63599;SDS011;49747;51.334;6.830;2023-02-11T13:51:49;47.65;;;20.27;;
63599;SDS011;49747;51.334;6.830;2023-02-11T13:54:19;47.03;;;19.95;;
63599;SDS011;49747;51.334;6.830;2023-02-11T13:59:49;42.15;;;19.90;;
63599;SDS011;49747;51.334;6.830;2023-02-11T14:02:25;47.38;;;20.17;;
63599;SDS011;49747;51.334;6.830;2023-02-11T14:05:31;51.53;;;21.50;;
63599;SDS011;49747;51.334;6.830;2023-02-11T14:08:17;9.77;;;5.53;;
63599;SDS011;49747;51.334;6.830;2023-02-11T14:11:09;25.23;;;10.85;;
63599;SDS011;49747;51.334;6.830;2023-02-11T14:19:31;42.28;;;20.60;;
63599;SDS011;49747;51.334;6.830;2023-02-11T14:22:16;44.70;;;20.77;;
63599;SDS011;49747;51.334;6.830;2023-02-11T14:24:55;44.63;;;21.30;;
63599;SDS011;49747;51.334;6.830;2023-02-11T14:27:27;40.08;;;19.73;;
63599;SDS011;49747;51.334;6.830;2023-02-11T14:43:53;46.10;;;20.52;;
63599;SDS011;49747;51.334;6.830;2023-02-11T14:46:23;47.80;;;21.77;;
63599;SDS011;49747;51.334;6.830;2023-02-11T14:48:56;45.08;;;21.00;;
63599;SDS011;49747;51.334;6.830;2023-02-11T14:51:26;47.42;;;20.60;;
63599;SDS011;49747;51.334;6.830;2023-02-11T14:53:58;46.15;;;20.75;;
63599;SDS011;49747;51.334;6.830;2023-02-11T14:56:32;39.30;;;20.30;;
63599;SDS011;49747;51.334;6.830;2023-02-11T14:59:02;46.45;;;20.15;;
63599;SDS011;49747;51.334;6.830;2023-02-11T15:01:30;43.10;;;21.30;;
63599;SDS011;49747;51.334;6.830;2023-02-11T15:04:00;47.28;;;20.70;;
63599;SDS011;49747;51.334;6.830;2023-02-11T15:06:33;44.67;;;21.33;;
63599;SDS011;49747;51.334;6.830;2023-02-11T15:09:13;44.42;;;20.52;;
63599;SDS011;49747;51.334;6.830;2023-02-11T15:11:44;38.58;;;18.88;;
63599;SDS011;49747;51.334;6.830;2023-02-11T15:14:24;44.30;;;20.65;;
63599;SDS011;49747;51.334;6.830;2023-02-11T15:16:53;44.92;;;21.33;;
63599;SDS011;49747;51.334;6.830;2023-02-11T15:19:27;43.47;;;21.40;;
63599;SDS011;49747;51.334;6.830;2023-02-11T15:22:00;40.30;;;19.23;;
63599;SDS011;49747;51.334;6.830;2023-02-11T15:24:32;43.28;;;20.95;;
63599;SDS011;49747;51.334;6.830;2023-02-11T15:27:08;40.33;;;19.77;;
63599;SDS011;49747;51.334;6.830;2023-02-11T15:29:42;49.05;;;21.88;;
63599;SDS011;49747;51.334;6.830;2023-02-11T15:32:18;43.53;;;20.75;;
63599;SDS011;49747;51.334;6.830;2023-02-11T15:34:50;42.65;;;19.60;;
63599;SDS011;49747;51.334;6.830;2023-02-11T15:39:44;45.50;;;17.60;;
63599;SDS011;49747;51.334;6.830;2023-02-11T15:44:45;45.20;;;20.55;;
63599;SDS011;49747;51.334;6.830;2023-02-11T15:47:21;43.10;;;19.55;;
63599;SDS011;49747;51.334;6.830;2023-02-11T15:49:54;44.13;;;20.52;;
63599;SDS011;49747;51.334;6.830;2023-02-11T15:52:22;43.80;;;19.40;;
63599;SDS011;49747;51.334;6.830;2023-02-11T15:54:51;44.60;;;20.63;;
63599;SDS011;49747;51.334;6.830;2023-02-11T15:57:21;44.47;;;20.17;;
63599;SDS011;49747;51.334;6.830;2023-02-11T15:59:49;45.08;;;19.67;;
63599;SDS011;49747;51.334;6.830;2023-02-11T16:02:27;42.97;;;19.58;;
63599;SDS011;49747;51.334;6.830;2023-02-11T16:04:58;42.28;;;19.15;;
63599;SDS011;49747;51.334;6.830;2023-02-11T16:07:44;46.92;;;20.25;;
63599;SDS011;49747;51.334;6.830;2023-02-11T16:18:03;44.00;;;20.30;;
63599;SDS011;49747;51.334;6.830;2023-02-11T16:21:02;43.53;;;19.92;;
63599;SDS011;49747;51.334;6.830;2023-02-11T16:23:33;42.05;;;19.30;;
63599;SDS011;49747;51.334;6.830;2023-02-11T16:26:06;45.20;;;20.90;;
63599;SDS011;49747;51.334;6.830;2023-02-11T16:31:05;43.88;;;19.20;;
63599;SDS011;49747;51.334;6.830;2023-02-11T16:33:32;46.70;;;21.60;;
63599;SDS011;49747;51.334;6.830;2023-02-11T16:35:59;45.33;;;21.08;;
63599;SDS011;49747;51.334;6.830;2023-02-11T16:38:28;40.92;;;20.42;;
63599;SDS011;49747;51.334;6.830;2023-02-11T16:40:55;41.03;;;19.23;;
63599;SDS011;49747;51.334;6.830;2023-02-11T16:43:22;42.30;;;19.77;;
63599;SDS011;49747;51.334;6.830;2023-02-11T16:45:49;43.55;;;20.60;;
63599;SDS011;49747;51.334;6.830;2023-02-11T16:48:16;45.30;;;20.98;;
63599;SDS011;49747;51.334;6.830;2023-02-11T16:50:46;50.78;;;22.90;;
63599;SDS011;49747;51.334;6.830;2023-02-11T16:53:20;37.95;;;19.92;;
63599;SDS011;49747;51.334;6.830;2023-02-11T16:55:49;41.72;;;19.58;;
63599;SDS011;49747;51.334;6.830;2023-02-11T16:58:18;41.63;;;21.85;;
63599;SDS011;49747;51.334;6.830;2023-02-11T17:00:45;43.20;;;21.88;;
63599;SDS011;49747;51.334;6.830;2023-02-11T17:03:15;44.90;;;20.48;;
63599;SDS011;49747;51.334;6.830;2023-02-11T17:05:49;47.40;;;21.10;;
63599;SDS011;49747;51.334;6.830;2023-02-11T17:08:21;46.38;;;20.83;;
63599;SDS011;49747;51.334;6.830;2023-02-11T17:10:47;39.90;;;20.88;;
63599;SDS011;49747;51.334;6.830;2023-02-11T17:13:15;44.20;;;20.70;;
63599;SDS011;49747;51.334;6.830;2023-02-11T17:15:41;47.00;;;20.27;;
63599;SDS011;49747;51.334;6.830;2023-02-11T17:18:11;42.03;;;21.13;;
63599;SDS011;49747;51.334;6.830;2023-02-11T17:20:39;44.22;;;21.48;;
63599;SDS011;49747;51.334;6.830;2023-02-11T17:23:08;49.35;;;22.63;;
63599;SDS011;49747;51.334;6.830;2023-02-11T17:25:35;43.72;;;21.50;;